Time;durP1;ratioP1;P1;durP2;ratioP2;P2;SDS_P1;SDS_P2;PMS_P1;PMS_P2;Temp;Humidity;BMP_temperature;BMP_pressure;BME280_temperature;BME280_humidity;BME280_pressure;Samples;Min_cycle;Max_cycle;Signal;HPM_P1;HPM_P2
2022/04/21 00:01:32;;;;;;;4.40;2.53;;;;;;;11.16;53.21;100672.47;4975928;28;20006;-71
2022/04/21 00:03:57;;;;;;;2.38;2.22;;;;;;;11.14;53.92;100675.28;4943731;28;20196;-70
2022/04/21 00:06:23;;;;;;;2.50;2.30;;;;;;;11.09;53.91;100679.31;4970208;28;20015;-70
2022/04/21 00:08:48;;;;;;;2.50;2.40;;;;;;;11.01;53.94;100680.00;4970625;28;20447;-71
2022/04/21 00:11:13;;;;;;;2.10;2.00;;;;;;;11.04;54.10;100673.59;4977883;28;20553;-71
2022/04/21 00:13:39;;;;;;;2.40;2.30;;;;;;;11.05;54.37;100675.28;4975190;28;20494;-71
2022/04/21 00:16:05;;;;;;;2.53;2.33;;;;;;;11.07;54.36;100670.66;4948089;28;20013;-71
2022/04/21 00:18:30;;;;;;;3.83;2.47;;;;;;;11.14;53.84;100671.81;4939849;28;20015;-70
2022/04/21 00:20:59;;;;;;;2.40;2.30;;;;;;;11.23;53.93;100672.75;4951845;28;20034;-70
2022/04/21 00:23:28;;;;;;;2.28;2.10;;;;;;;11.11;54.10;100669.41;4953053;28;20027;-70
2022/04/21 00:26:01;;;;;;;3.97;2.30;;;;;;;11.06;53.90;100661.91;4964842;28;20587;-69
2022/04/21 00:28:28;;;;;;;5.35;2.78;;;;;;;11.01;54.01;100666.78;4954178;28;20057;-70
2022/04/21 00:30:54;;;;;;;2.35;2.20;;;;;;;10.95;54.25;100670.00;4956476;28;20014;-70
2022/04/21 00:33:19;;;;;;;2.30;2.20;;;;;;;10.97;54.66;100668.88;4956548;28;20355;-70
2022/04/21 00:35:44;;;;;;;2.53;2.30;;;;;;;10.80;55.11;100662.50;4938758;28;20436;-70
2022/04/21 00:38:10;;;;;;;2.67;2.47;;;;;;;10.89;54.83;100666.09;4954502;28;20030;-70
2022/04/21 00:40:36;;;;;;;2.55;2.35;;;;;;;10.76;55.07;100665.53;4939891;28;20035;-70
2022/04/21 00:43:01;;;;;;;2.60;2.30;;;;;;;10.63;55.76;100661.38;4959611;28;20010;-71
2022/04/21 00:45:27;;;;;;;2.67;2.40;;;;;;;10.70;55.49;100658.16;4967803;28;20440;-70
2022/04/21 00:47:54;;;;;;;3.05;2.47;;;;;;;10.37;56.64;100662.91;4939501;28;20023;-70
2022/04/21 00:50:24;;;;;;;2.58;2.45;;;;;;;10.20;56.97;100659.91;4940405;28;20508;-69
2022/04/21 00:52:49;;;;;;;3.75;2.40;;;;;;;10.44;56.44;100656.91;4937889;28;20080;-72
2022/04/21 00:55:15;;;;;;;2.63;2.50;;;;;;;10.38;56.77;100661.91;4956480;28;20101;-72
2022/04/21 00:57:41;;;;;;;2.88;2.67;;;;;;;10.29;57.41;100659.09;4960577;28;20007;-71
2022/04/21 01:00:07;;;;;;;3.10;2.50;;;;;;;10.18;57.56;100661.88;4938665;28;20015;-70
2022/04/21 01:05:32;;;;;;;2.47;2.38;;;;;;;9.94;58.05;100651.63;4946522;28;20079;-70
2022/04/21 01:08:07;;;;;;;2.58;2.38;;;;;;;10.00;57.97;100656.41;4946982;28;20038;-70
2022/04/21 01:10:34;;;;;;;2.60;2.40;;;;;;;9.88;57.95;100660.94;4951347;28;20010;-69
2022/04/21 01:13:00;;;;;;;2.97;2.40;;;;;;;9.77;58.05;100653.09;4958639;28;20023;-71
2022/04/21 01:15:26;;;;;;;2.60;2.50;;;;;;;9.72;58.52;100661.44;4948025;28;20037;-70
2022/04/21 01:17:52;;;;;;;3.88;2.35;;;;;;;9.71;58.47;100643.91;4959893;28;20150;-70
2022/04/21 01:20:18;;;;;;;2.47;2.30;;;;;;;9.67;58.60;100646.97;4942520;28;20034;-70
2022/04/21 01:22:44;;;;;;;2.67;2.55;;;;;;;9.62;59.12;100661.41;4958205;28;20431;-70
2022/04/21 01:25:10;;;;;;;3.33;2.40;;;;;;;9.54;59.73;100661.22;4954407;28;21007;-71
2022/04/21 01:27:37;;;;;;;2.70;2.60;;;;;;;9.35;60.12;100646.13;4945851;28;20118;-71
2022/04/21 01:30:03;;;;;;;3.28;2.38;;;;;;;9.40;60.39;100645.72;4938764;28;20063;-71
2022/04/21 01:32:28;;;;;;;2.50;2.30;;;;;;;9.22;60.73;100643.72;4968940;28;20553;-72
2022/04/21 01:34:53;;;;;;;6.88;2.63;;;;;;;9.10;60.80;100642.94;4939614;28;20030;-72
2022/04/21 01:42:47;;;;;;;2.67;2.30;;;;;;;9.27;60.46;100635.38;4939915;28;20021;-70
2022/04/21 01:45:13;;;;;;;2.80;2.60;;;;;;;9.27;61.07;100624.81;4954462;28;20019;-70
2022/04/21 01:47:38;;;;;;;2.50;2.40;;;;;;;9.21;60.62;100631.47;4958933;28;20022;-69
2022/04/21 01:50:07;;;;;;;5.88;2.80;;;;;;;9.04;61.29;100619.69;4971623;28;20014;-71
2022/04/21 01:52:34;;;;;;;3.65;2.67;;;;;;;8.73;62.62;100621.44;4956462;28;20729;-70
2022/04/21 01:54:59;;;;;;;3.05;2.85;;;;;;;8.68;62.53;100613.06;4969824;28;20121;-69
2022/04/21 01:57:24;;;;;;;2.90;2.70;;;;;;;8.58;62.63;100621.72;4963791;28;20294;-70
2022/04/21 01:59:51;;;;;;;2.97;2.72;;;;;;;8.75;62.09;100614.22;4955395;28;20015;-69
2022/04/21 02:02:17;;;;;;;5.00;2.50;;;;;;;8.59;62.73;100615.50;4939528;28;20037;-70
2022/04/21 02:04:42;;;;;;;5.88;2.70;;;;;;;8.66;62.40;100609.72;4955362;28;20815;-70
2022/04/21 02:07:08;;;;;;;2.90;2.70;;;;;;;8.63;62.51;100609.97;4972519;28;20018;-70
2022/04/21 02:09:33;;;;;;;5.13;2.60;;;;;;;8.48;62.71;100607.66;4954101;28;20123;-70
2022/04/21 02:11:59;;;;;;;2.92;2.70;;;;;;;8.48;62.91;100602.38;4957776;28;20029;-70
2022/04/21 02:14:24;;;;;;;3.10;2.90;;;;;;;8.34;63.33;100605.28;4970834;28;20026;-70
2022/04/21 02:16:49;;;;;;;3.40;2.70;;;;;;;8.49;63.15;100608.47;4953535;28;20092;-69
2022/04/21 02:19:15;;;;;;;3.15;2.85;;;;;;;8.24;63.97;100621.84;4979900;28;20021;-69
2022/04/21 02:21:40;;;;;;;3.20;2.90;;;;;;;8.16;63.92;100611.06;4956119;28;20018;-71
2022/04/21 02:24:06;;;;;;;2.70;2.50;;;;;;;8.10;64.21;100613.38;4973678;28;20770;-69
2022/04/21 02:26:31;;;;;;;6.90;2.80;;;;;;;7.94;64.56;100605.84;4938327;28;20021;-70
2022/04/21 02:28:56;;;;;;;3.38;3.08;;;;;;;7.85;65.17;100608.25;4962578;28;20031;-69
2022/04/21 02:31:22;;;;;;;3.38;2.90;;;;;;;7.90;65.22;100608.75;4956504;28;20103;-70
2022/04/21 02:33:47;;;;;;;3.70;2.95;;;;;;;7.76;65.53;100603.75;4955388;28;20814;-70
2022/04/21 02:36:13;;;;;;;2.90;2.70;;;;;;;7.98;64.69;100604.66;4953483;28;20422;-70
2022/04/21 02:38:38;;;;;;;2.70;2.60;;;;;;;7.78;65.54;100598.34;4920011;28;20023;-69
2022/04/21 02:41:04;;;;;;;2.95;2.75;;;;;;;7.68;65.78;100606.16;4970831;28;20103;-69
2022/04/21 02:43:29;;;;;;;2.83;2.63;;;;;;;7.72;65.53;100607.59;4967803;28;20092;-70
2022/04/21 02:45:54;;;;;;;2.85;2.70;;;;;;;7.71;65.86;100595.38;4961709;28;20726;-71
2022/04/21 02:48:20;;;;;;;3.42;2.95;;;;;;;7.55;66.25;100604.47;4935884;28;20426;-70
2022/04/21 02:50:47;;;;;;;3.03;2.83;;;;;;;7.87;65.06;100602.91;4938181;28;19999;-69
2022/04/21 02:53:13;;;;;;;5.13;2.80;;;;;;;7.62;65.78;100596.13;4938092;28;20090;-69
2022/04/21 02:58:23;;;;;;;3.38;3.00;;;;;;;7.75;65.23;100586.25;4973134;28;20960;-70
2022/04/21 03:00:49;;;;;;;4.60;3.20;;;;;;;7.56;65.96;100587.72;4967639;28;20449;-69
2022/04/21 03:03:14;;;;;;;6.35;3.30;;;;;;;7.63;65.74;100590.72;4967528;28;20879;-69
2022/04/21 03:05:40;;;;;;;3.33;3.10;;;;;;;7.46;66.09;100599.09;4952415;28;20032;-69
2022/04/21 03:08:05;;;;;;;3.83;2.80;;;;;;;7.39;66.46;100598.75;4955558;28;20658;-70
2022/04/21 03:10:32;;;;;;;2.72;2.50;;;;;;;7.30;67.39;100591.56;4975955;28;20042;-69
2022/04/21 03:12:58;;;;;;;7.38;3.03;;;;;;;7.18;67.34;100591.56;4953903;28;20017;-69
2022/04/21 03:15:24;;;;;;;7.53;3.08;;;;;;;7.11;67.99;100600.06;4955222;28;20051;-69
2022/04/21 03:17:49;;;;;;;6.28;3.00;;;;;;;7.15;67.25;100602.31;4958460;28;20847;-69
2022/04/21 03:24:19;;;;;;;3.10;2.90;;;;;;;7.25;67.07;100591.06;4974882;28;20208;-70
2022/04/21 03:25:44;;;;;;;3.20;2.90;;;;;;;7.20;67.09;100589.63;4956489;28;21168;-70
2022/04/21 03:28:10;;;;;;;5.78;3.13;;;;;;;7.33;66.21;100593.94;4953658;28;20031;-69
2022/04/21 03:30:36;;;;;;;4.57;3.13;;;;;;;7.07;67.03;100585.47;4934614;28;20393;-69
2022/04/21 03:33:01;;;;;;;3.65;3.35;;;;;;;7.02;67.51;100598.94;4937181;28;20057;-70
2022/04/21 03:35:26;;;;;;;3.45;3.25;;;;;;;6.90;68.12;100599.91;4952660;28;20034;-70
2022/04/21 03:37:52;;;;;;;3.78;3.10;;;;;;;6.87;68.03;100607.06;4952617;28;20122;-70
2022/04/21 03:40:17;;;;;;;6.68;3.22;;;;;;;6.94;68.04;100609.22;4945306;28;20711;-70
2022/04/21 03:42:43;;;;;;;3.72;3.10;;;;;;;6.81;68.74;100604.03;4951196;28;20126;-70
2022/04/21 03:45:08;;;;;;;3.28;3.05;;;;;;;6.81;68.54;100599.66;4963283;28;20019;-69
2022/04/21 03:47:34;;;;;;;3.33;3.08;;;;;;;6.81;68.47;100601.41;4973433;28;20534;-70
2022/04/21 03:49:59;;;;;;;4.72;3.10;;;;;;;6.87;68.03;100604.44;4958769;28;20228;-70
2022/04/21 03:52:25;;;;;;;3.08;2.88;;;;;;;6.70;68.74;100602.25;4961135;28;20728;-70
2022/04/21 03:54:50;;;;;;;4.75;2.90;;;;;;;6.70;68.79;100599.63;4952427;28;20011;-70
2022/04/21 03:57:15;;;;;;;3.20;3.00;;;;;;;6.57;68.65;100606.72;4952396;28;20156;-71
2022/04/21 03:59:41;;;;;;;4.30;3.30;;;;;;;6.61;68.74;100598.50;4938450;28;20011;-71
2022/04/21 04:02:06;;;;;;;3.72;3.10;;;;;;;6.60;68.84;100602.09;4960874;28;20018;-71
2022/04/21 04:04:36;;;;;;;3.42;2.95;;;;;;;6.49;69.23;100595.00;4957267;28;20558;-71
2022/04/21 04:12:34;;;;;;;3.75;3.22;;;;;;;6.41;70.13;100591.25;4958064;28;20026;-71
2022/04/21 04:15:00;;;;;;;3.65;3.35;;;;;;;6.47;69.59;100591.66;4956254;28;20018;-72
2022/04/21 04:17:26;;;;;;;3.40;3.10;;;;;;;6.45;69.69;100592.72;4956183;28;20026;-72
2022/04/21 04:19:51;;;;;;;3.70;3.22;;;;;;;6.41;69.56;100592.09;4939842;28;20027;-70
2022/04/21 04:22:17;;;;;;;5.68;3.17;;;;;;;6.41;69.98;100599.97;4972229;28;20014;-69
2022/04/21 04:24:44;;;;;;;3.25;3.10;;;;;;;6.47;69.16;100594.28;4947534;28;20093;-72
2022/04/21 04:27:09;;;;;;;3.78;3.25;;;;;;;6.53;68.65;100596.44;4937797;28;20294;-71
2022/04/21 04:29:35;;;;;;;3.17;2.97;;;;;;;6.48;69.19;100609.09;4953522;28;20784;-74
2022/04/21 04:32:03;;;;;;;4.28;3.28;;;;;;;6.48;69.36;100603.81;4952346;28;19999;-72
2022/04/21 04:34:29;;;;;;;3.30;3.10;;;;;;;6.37;69.28;100601.16;4942192;28;20462;-72
2022/04/21 04:36:54;;;;;;;3.50;3.30;;;;;;;6.26;70.16;100601.09;4917427;28;21048;-70
2022/04/21 04:39:20;;;;;;;3.97;3.35;;;;;;;6.17;70.43;100603.44;4943481;28;20795;-71
2022/04/21 04:44:29;;;;;;;5.75;3.63;;;;;;;6.15;71.35;100608.00;4953532;28;20012;-74
2022/04/21 04:46:55;;;;;;;4.55;3.80;;;;;;;6.07;71.45;100605.06;4956808;28;20028;-74
2022/04/21 04:49:20;;;;;;;10.20;4.50;;;;;;;6.10;71.72;100607.47;4938832;28;20503;-73
2022/04/21 04:51:46;;;;;;;5.30;3.75;;;;;;;6.17;71.33;100600.81;4959982;28;20030;-73
2022/04/21 04:54:12;;;;;;;5.43;3.70;;;;;;;6.15;71.13;100592.22;4949000;28;20204;-73
2022/04/21 04:56:39;;;;;;;3.35;3.05;;;;;;;6.09;71.25;100603.19;4940827;28;20018;-72
2022/04/21 04:59:04;;;;;;;3.80;3.30;;;;;;;6.14;71.70;100598.44;4953959;28;20786;-73
2022/04/21 05:01:40;;;;;;;3.53;3.33;;;;;;;6.19;71.47;100600.75;4943692;28;20080;-72
2022/04/21 05:04:12;;;;;;;5.25;3.60;;;;;;;6.21;71.15;100595.38;4939479;28;20011;-71
2022/04/21 05:06:39;;;;;;;4.28;3.17;;;;;;;6.21;71.04;100601.44;4950179;28;20018;-73
2022/04/21 05:09:06;;;;;;;5.25;3.25;;;;;;;6.22;71.01;100602.28;4956043;28;20602;-73
2022/04/21 05:11:33;;;;;;;4.40;3.40;;;;;;;6.17;71.06;100600.81;4939226;28;20006;-72
2022/04/21 05:13:58;;;;;;;7.10;4.97;;;;;;;6.11;71.19;100593.41;4944363;28;20084;-72
2022/04/21 05:16:24;;;;;;;3.90;3.50;;;;;;;6.13;71.80;100591.47;4957425;28;20297;-74
2022/04/21 05:18:49;;;;;;;4.82;3.45;;;;;;;6.14;71.32;100592.34;4949433;28;20882;-72
2022/04/21 05:21:16;;;;;;;5.15;3.30;;;;;;;6.21;71.42;100598.00;4943711;28;20031;-74
2022/04/21 05:23:42;;;;;;;3.60;3.30;;;;;;;6.31;71.41;100593.72;4953817;28;20018;-74
2022/04/21 05:26:08;;;;;;;3.55;3.30;;;;;;;6.34;70.83;100601.38;4954417;28;20026;-73
2022/04/21 05:28:33;;;;;;;3.72;3.42;;;;;;;6.36;71.36;100594.25;4956980;28;20026;-72
2022/04/21 05:31:00;;;;;;;4.07;3.50;;;;;;;6.46;71.08;100591.78;4938040;28;20376;-73
2022/04/21 05:33:27;;;;;;;4.82;3.55;;;;;;;6.55;71.06;100590.25;4934933;28;20015;-72
2022/04/21 05:35:54;;;;;;;3.80;3.50;;;;;;;6.62;70.86;100588.84;4950766;28;20011;-72
2022/04/21 05:38:21;;;;;;;5.25;3.63;;;;;;;6.76;70.95;100588.63;4943525;28;20978;-73
2022/04/21 05:40:47;;;;;;;3.80;3.35;;;;;;;6.99;69.72;100586.84;4947812;28;20039;-73
2022/04/21 05:43:12;;;;;;;4.82;3.40;;;;;;;7.08;69.29;100585.34;4959898;28;20027;-72
2022/04/21 05:45:38;;;;;;;3.80;3.38;;;;;;;7.04;69.84;100581.25;4934168;28;20011;-73
2022/04/21 05:48:04;;;;;;;10.57;3.50;;;;;;;7.08;69.39;100574.81;4939181;28;20745;-72
2022/04/21 05:50:29;;;;;;;6.90;3.83;;;;;;;7.18;69.68;100574.94;4959789;28;20018;-71
2022/04/21 05:52:55;;;;;;;5.55;3.55;;;;;;;7.25;69.36;100570.88;4954692;28;20161;-74
2022/04/21 05:55:21;;;;;;;4.80;3.50;;;;;;;7.36;69.43;100570.00;4955884;28;20018;-72
2022/04/21 05:57:46;;;;;;;7.53;3.55;;;;;;;7.51;69.31;100581.16;4959215;28;20003;-73
2022/04/21 06:00:12;;;;;;;4.00;3.67;;;;;;;7.67;69.05;100578.97;4934888;28;20025;-73
2022/04/21 06:02:37;;;;;;;4.00;3.65;;;;;;;7.90;68.96;100571.88;4952935;28;20038;-73
2022/04/21 06:05:04;;;;;;;4.18;3.72;;;;;;;8.09;68.62;100575.63;4941672;28;20155;-72
2022/04/21 06:07:30;;;;;;;4.80;3.38;;;;;;;8.15;68.22;100577.78;4975841;28;20018;-72
2022/04/21 06:09:55;;;;;;;6.18;4.03;;;;;;;8.42;67.61;100573.84;4954962;28;20031;-74
2022/04/21 06:12:23;;;;;;;4.63;4.07;;;;;;;8.63;67.01;100576.53;4970996;28;20178;-73
2022/04/21 06:14:48;;;;;;;5.97;4.07;;;;;;;8.72;66.99;100577.56;4933348;28;20007;-74
2022/04/21 06:17:14;;;;;;;4.53;4.13;;;;;;;8.87;66.21;100576.28;4955998;28;20099;-74
2022/04/21 06:19:39;;;;;;;9.88;4.50;;;;;;;8.89;65.91;100579.59;4948864;28;20006;-73
2022/04/21 06:22:05;;;;;;;4.80;4.32;;;;;;;8.91;65.95;100577.69;4962028;28;20062;-74
2022/04/21 06:24:31;;;;;;;4.68;4.28;;;;;;;9.06;65.00;100577.34;4948780;28;20554;-75
2022/04/21 06:26:56;;;;;;;5.30;4.10;;;;;;;9.20;63.37;100574.34;4949182;28;20421;-74
2022/04/21 06:29:21;;;;;;;6.90;4.03;;;;;;;9.41;62.31;100565.53;4975090;28;20844;-74
2022/04/21 06:31:47;;;;;;;4.30;3.90;;;;;;;9.58;60.97;100570.16;4954238;28;20188;-73
2022/04/21 06:34:12;;;;;;;4.63;4.28;;;;;;;9.76;60.66;100564.25;4975555;28;20094;-73
2022/04/21 06:36:37;;;;;;;6.80;4.10;;;;;;;9.82;60.37;100558.41;4957853;28;20007;-73
2022/04/21 06:39:03;;;;;;;5.63;3.70;;;;;;;9.92;60.11;100561.06;4969770;28;20023;-75
2022/04/21 06:41:29;;;;;;;4.65;3.60;;;;;;;10.04;59.86;100559.13;4964858;28;20018;-74
2022/04/21 06:49:22;;;;;;;3.55;3.33;;;;;;;10.35;57.30;100570.47;4949530;28;20047;-73
2022/04/21 06:51:47;;;;;;;3.85;3.55;;;;;;;10.53;56.96;100569.75;4965520;28;20027;-74
2022/04/21 06:54:13;;;;;;;3.67;3.40;;;;;;;10.60;56.81;100569.06;4959003;28;20298;-74
2022/04/21 06:56:43;;;;;;;3.83;3.53;;;;;;;10.74;56.26;100566.94;4939045;28;20118;-74
2022/04/21 06:59:09;;;;;;;4.05;3.60;;;;;;;10.87;55.97;100567.47;4943700;28;20033;-73
2022/04/21 07:01:35;;;;;;;3.72;3.42;;;;;;;10.91;56.08;100566.19;4958597;28;20011;-73
2022/04/21 07:04:00;;;;;;;4.55;3.30;;;;;;;11.03;55.99;100571.31;4933511;28;20189;-73
2022/04/21 07:06:26;;;;;;;5.75;3.42;;;;;;;11.07;55.97;100575.34;4951740;28;20037;-73
2022/04/21 07:08:51;;;;;;;6.50;3.40;;;;;;;11.22;55.35;100568.59;4951750;28;20039;-73
2022/04/21 07:11:20;;;;;;;5.90;3.58;;;;;;;11.34;54.67;100570.09;4949891;28;20782;-73
2022/04/21 07:13:45;;;;;;;3.10;2.95;;;;;;;11.36;55.12;100571.75;4941964;28;20097;-72
2022/04/21 07:16:11;;;;;;;3.13;2.83;;;;;;;11.49;54.23;100566.94;4960727;28;20014;-73
2022/04/21 07:18:36;;;;;;;2.80;2.60;;;;;;;11.62;54.28;100567.44;4956162;28;21426;-72
2022/04/21 07:21:03;;;;;;;3.28;2.80;;;;;;;11.78;54.38;100571.28;4948055;28;20046;-74
2022/04/21 07:23:28;;;;;;;2.85;2.65;;;;;;;11.88;54.66;100572.03;4960480;28;20192;-74
2022/04/21 07:25:54;;;;;;;3.03;2.67;;;;;;;11.95;54.78;100567.00;4960303;28;20838;-73
2022/04/21 07:28:20;;;;;;;7.22;2.80;;;;;;;12.15;53.46;100565.03;4938370;28;20037;-74
2022/04/21 07:30:46;;;;;;;3.03;2.83;;;;;;;12.25;53.80;100557.00;4965735;28;20079;-74
2022/04/21 07:33:12;;;;;;;2.95;2.75;;;;;;;12.31;53.42;100562.53;4956904;28;20033;-72
2022/04/21 07:35:37;;;;;;;3.00;2.80;;;;;;;12.35;52.66;100560.41;4953424;28;20872;-74
2022/04/21 07:38:03;;;;;;;2.78;2.60;;;;;;;12.40;50.60;100555.47;4953277;28;20109;-73
2022/04/21 07:40:29;;;;;;;4.93;2.50;;;;;;;12.41;51.14;100565.13;4931767;28;20041;-74
2022/04/21 07:42:54;;;;;;;3.17;2.70;;;;;;;12.49;52.41;100561.69;4971085;28;20608;-74
2022/04/21 07:45:19;;;;;;;2.60;2.45;;;;;;;12.54;49.93;100562.06;4942378;28;20044;-74
2022/04/21 07:47:45;;;;;;;2.88;2.50;;;;;;;12.61;51.12;100552.50;4957399;28;20707;-73
2022/04/21 07:50:10;;;;;;;2.53;2.40;;;;;;;12.74;51.29;100559.22;4945231;28;20026;-73
2022/04/21 07:55:23;;;;;;;3.60;2.65;;;;;;;12.95;49.62;100541.09;4958330;28;20103;-73
2022/04/21 07:57:48;;;;;;;2.63;2.47;;;;;;;13.01;50.95;100543.09;4954912;28;20026;-73
2022/04/21 08:00:16;;;;;;;2.58;2.42;;;;;;;13.07;49.86;100544.28;4935889;28;20499;-73
2022/04/21 08:02:42;;;;;;;2.58;2.45;;;;;;;13.15;50.35;100538.19;4946797;28;20021;-73
2022/04/21 08:05:08;;;;;;;2.63;2.42;;;;;;;13.22;50.20;100545.38;4968637;28;20030;-73
2022/04/21 08:07:34;;;;;;;2.50;2.30;;;;;;;13.37;51.10;100542.97;4954695;28;20011;-71
2022/04/21 08:10:01;;;;;;;3.90;1.80;;;;;;;13.52;48.24;100539.72;4968577;28;20866;-72
2022/04/21 08:12:26;;;;;;;1.63;1.52;;;;;;;13.69;45.56;100538.78;4922999;28;20065;-72
2022/04/21 08:14:51;;;;;;;2.47;1.30;;;;;;;13.95;44.88;100539.66;4952073;28;20011;-73
2022/04/21 08:17:17;;;;;;;1.27;1.27;;;;;;;14.11;42.32;100544.16;4950003;28;20019;-72
2022/04/21 08:19:42;;;;;;;1.30;1.30;;;;;;;14.32;42.70;100547.16;4953144;28;20209;-73
2022/04/21 08:22:08;;;;;;;1.60;1.60;;;;;;;14.15;41.75;100546.31;4964100;28;20007;-72
2022/04/21 08:32:45;;;;;;;2.28;1.10;;;;;;;15.20;38.44;100547.38;4960055;28;20021;-74
2022/04/21 08:35:13;;;;;;;3.08;1.25;;;;;;;15.33;39.62;100547.69;4950823;28;20030;-73
2022/04/21 08:37:40;;;;;;;1.00;1.00;;;;;;;15.45;37.95;100537.44;4957738;28;20015;-72
2022/04/21 08:40:06;;;;;;;2.13;1.40;;;;;;;15.50;37.18;100543.09;4936456;28;20551;-73
2022/04/21 08:42:35;;;;;;;1.35;1.35;;;;;;;15.29;37.02;100544.50;4949439;28;20017;-74
2022/04/21 08:45:00;;;;;;;3.40;1.30;;;;;;;15.48;37.67;100533.59;4948178;28;20015;-74
2022/04/21 08:47:28;;;;;;;1.10;1.10;;;;;;;15.72;37.13;100540.66;4962057;28;20030;-74
2022/04/21 08:50:03;;;;;;;1.10;1.10;;;;;;;15.98;37.78;100537.69;4963074;28;20111;-74
2022/04/21 08:52:28;;;;;;;1.67;1.50;;;;;;;16.29;37.04;100534.13;4960924;28;20025;-73
2022/04/21 08:54:54;;;;;;;2.75;1.33;;;;;;;16.54;36.03;100528.56;4949241;28;20022;-73
2022/04/21 08:57:19;;;;;;;1.58;1.20;;;;;;;16.75;35.86;100526.03;4926092;28;20049;-73
2022/04/21 08:59:45;;;;;;;1.38;1.38;;;;;;;17.05;36.38;100523.38;4965220;28;20023;-73
2022/04/21 09:02:10;;;;;;;1.95;1.20;;;;;;;17.10;35.11;100522.81;4967891;28;20037;-74
2022/04/21 09:04:36;;;;;;;2.13;1.40;;;;;;;17.22;34.36;100523.16;4965604;28;20440;-73
2022/04/21 09:07:21;;;;;;;1.58;1.10;;;;;;;16.98;32.71;100517.13;4961146;28;20082;-73
2022/04/21 09:10:00;;;;;;;1.65;1.25;;;;;;;17.33;33.49;100509.34;4958652;28;20820;-73
2022/04/21 09:12:25;;;;;;;1.13;1.10;;;;;;;17.31;32.00;100512.19;4956317;28;20091;-73
2022/04/21 09:14:50;;;;;;;1.20;1.20;;;;;;;17.52;32.95;100503.38;4969219;28;20014;-73
2022/04/21 09:17:16;;;;;;;2.05;1.10;;;;;;;17.88;35.45;100504.41;4944378;28;20049;-74
2022/04/21 09:20:03;;;;;;;1.10;1.00;;;;;;;17.68;31.84;100506.84;4952931;28;20271;-73
2022/04/21 09:22:32;;;;;;;1.30;1.20;;;;;;;17.74;30.26;100498.09;4950833;28;20429;-74
2022/04/21 09:24:58;;;;;;;1.00;1.00;;;;;;;18.53;31.28;100486.44;4947599;28;20019;-73
2022/04/21 09:27:23;;;;;;;1.50;0.90;;;;;;;18.63;31.44;100486.06;4947805;28;20011;-75
2022/04/21 09:29:49;;;;;;;0.90;0.90;;;;;;;18.59;31.53;100481.31;4952977;28;21031;-73
2022/04/21 09:32:17;;;;;;;0.98;0.98;;;;;;;19.19;31.22;100471.75;4944991;28;20038;-73
2022/04/21 09:34:49;;;;;;;0.77;0.77;;;;;;;19.24;29.42;100467.66;4956681;28;20034;-74
2022/04/21 09:37:17;;;;;;;1.50;0.90;;;;;;;18.82;30.15;100465.75;4957629;28;20856;-73
2022/04/21 09:39:49;;;;;;;0.90;0.90;;;;;;;18.85;31.69;100464.53;4950086;28;20026;-73
2022/04/21 09:42:25;;;;;;;2.10;1.05;;;;;;;18.95;30.87;100472.25;4955238;28;20022;-74
2022/04/21 09:47:34;;;;;;;;;;;;;;;19.52;31.45;100468.34;4960040;28;20025;-72
2022/04/21 09:50:17;;;;;;;2.73;0.90;;;;;;;19.16;28.60;100460.59;4993273;28;19916;-74
2022/04/21 09:52:50;;;;;;;1.75;1.00;;;;;;;19.17;30.05;100465.75;4990498;28;21006;-74
2022/04/21 09:55:23;;;;;;;2.10;1.10;;;;;;;19.32;30.84;100460.25;4983241;28;20019;-74
2022/04/21 09:57:53;;;;;;;1.80;1.17;;;;;;;19.60;30.47;100455.75;4987694;28;20310;-73
2022/04/21 10:00:21;;;;;;;1.45;1.30;;;;;;;19.98;29.67;100452.53;4985260;28;20015;-73
2022/04/21 10:02:49;;;;;;;1.38;0.88;;;;;;;20.41;29.59;100452.13;4975454;28;20015;-73
2022/04/21 10:05:16;;;;;;;1.65;1.00;;;;;;;20.80;29.46;100442.34;4966632;28;20442;-74
2022/04/21 10:07:41;;;;;;;1.00;1.00;;;;;;;20.99;29.15;100440.59;5000074;28;20015;-74
2022/04/21 10:10:07;;;;;;;1.30;1.20;;;;;;;21.11;29.43;100427.31;4983573;28;20042;-75
2022/04/21 10:12:32;;;;;;;1.25;1.25;;;;;;;20.80;27.99;100436.97;4970830;28;20518;-74
2022/04/21 10:14:57;;;;;;;1.20;1.20;;;;;;;19.48;30.30;100429.53;4973458;28;20011;-73
2022/04/21 10:17:23;;;;;;;3.33;1.27;;;;;;;19.80;31.75;100434.34;4997767;28;20033;-74
2022/04/21 10:19:50;;;;;;;2.28;1.30;;;;;;;20.78;30.42;100430.94;5007414;28;20056;-74
2022/04/21 10:22:15;;;;;;;1.30;1.30;;;;;;;21.41;28.49;100432.94;4985614;28;20010;-74
2022/04/21 10:24:41;;;;;;;2.53;1.67;;;;;;;22.03;29.36;100431.50;4983309;28;20606;-75
2022/04/21 10:27:35;;;;;;;1.77;1.67;;;;;;;21.17;29.25;100415.69;4991386;28;20088;-75
2022/04/21 10:30:00;;;;;;;1.88;1.60;;;;;;;20.69;30.23;100425.00;4981938;28;20058;-74
2022/04/21 10:32:45;;;;;;;1.70;1.25;;;;;;;20.51;31.48;100416.75;4979696;28;20381;-75
2022/04/21 10:35:20;;;;;;;1.42;1.42;;;;;;;20.97;32.50;100405.03;5003425;28;20029;-75
2022/04/21 10:37:46;;;;;;;2.45;1.50;;;;;;;21.64;31.46;100407.34;5007501;28;20083;-76
2022/04/21 10:40:14;;;;;;;1.65;1.55;;;;;;;21.66;28.99;100399.91;4994351;28;20030;-75
2022/04/21 10:42:52;;;;;;;4.22;1.70;;;;;;;21.21;30.47;100410.72;4997949;28;20018;-73
2022/04/21 10:45:31;;;;;;;5.05;1.85;;;;;;;20.63;31.08;100414.22;4996651;28;20170;-74
2022/04/21 10:48:02;;;;;;;2.17;1.98;;;;;;;20.50;30.90;100415.91;4994179;28;20006;-74
2022/04/21 10:50:30;;;;;;;3.80;2.10;;;;;;;20.34;30.32;100419.88;4966581;28;20040;-73
2022/04/21 10:58:35;;;;;;;6.60;3.10;;;;;;;21.83;30.48;100404.72;4976220;28;20399;-74
2022/04/21 11:01:23;;;;;;;2.25;1.70;;;;;;;22.20;29.07;100400.25;4974573;28;20010;-74
2022/04/21 11:04:08;;;;;;;1.60;1.50;;;;;;;21.81;28.70;100394.16;4959859;28;20471;-74
2022/04/21 11:06:44;;;;;;;2.42;1.80;;;;;;;21.75;29.45;100397.75;4969145;28;20072;-74
2022/04/21 11:09:35;;;;;;;1.70;1.60;;;;;;;22.02;29.89;100392.13;4954413;28;20084;-74
2022/04/21 11:12:00;;;;;;;4.10;1.67;;;;;;;22.41;29.75;100398.22;4955647;28;20026;-74
2022/04/21 11:14:29;;;;;;;1.63;1.42;;;;;;;22.56;29.12;100384.34;4962491;28;20014;-74
2022/04/21 11:16:55;;;;;;;2.60;1.85;;;;;;;22.75;29.27;100395.97;4959662;28;20023;-75
2022/04/21 11:19:31;;;;;;;2.85;1.60;;;;;;;23.40;29.01;100381.00;4936971;28;20007;-74
2022/04/21 11:21:57;;;;;;;4.13;1.60;;;;;;;23.30;28.04;100385.06;4937548;28;20106;-73
2022/04/21 11:24:23;;;;;;;3.53;1.70;;;;;;;21.72;29.19;100393.63;4958170;28;20026;-74
2022/04/21 11:26:58;;;;;;;1.50;1.40;;;;;;;21.20;31.06;100387.53;4977825;28;20961;-73
2022/04/21 11:29:24;;;;;;;1.85;1.75;;;;;;;20.86;31.81;100397.63;4973852;28;20022;-75
2022/04/21 11:31:56;;;;;;;1.70;1.60;;;;;;;20.56;31.59;100403.50;4984879;28;20012;-73
2022/04/21 11:34:22;;;;;;;1.90;1.80;;;;;;;20.24;32.50;100392.59;4986816;28;20699;-73
2022/04/21 11:36:47;;;;;;;3.78;2.03;;;;;;;19.92;33.74;100383.56;4987526;28;20486;-74
2022/04/21 11:39:13;;;;;;;2.20;1.85;;;;;;;20.05;33.69;100394.28;5006116;28;20052;-73
2022/04/21 11:41:44;;;;;;;3.30;1.98;;;;;;;20.55;32.98;100386.53;5007797;28;20262;-75
2022/04/21 11:44:09;;;;;;;1.90;1.80;;;;;;;21.11;31.85;100386.97;4987709;28;20159;-73
2022/04/21 11:46:39;;;;;;;2.38;2.15;;;;;;;21.46;31.66;100383.81;4992992;28;20037;-74
2022/04/21 11:49:04;;;;;;;2.33;1.98;;;;;;;21.52;31.64;100384.84;4995329;28;20617;-74
2022/04/21 11:51:30;;;;;;;3.97;2.20;;;;;;;21.60;31.13;100379.22;4960194;28;20372;-74
2022/04/21 11:53:56;;;;;;;2.10;1.70;;;;;;;21.68;31.87;100384.31;5008008;28;20453;-74
2022/04/21 11:56:21;;;;;;;2.28;2.00;;;;;;;21.82;30.90;100379.66;4980966;28;20029;-75
2022/04/21 11:58:47;;;;;;;2.40;2.20;;;;;;;21.16;32.48;100378.25;4998991;28;20030;-76
2022/04/21 12:06:52;;;;;;;2.95;1.85;;;;;;;22.81;29.74;100374.28;4983757;28;20073;-75
2022/04/21 12:09:23;;;;;;;3.75;1.83;;;;;;;23.02;30.96;100363.25;4993031;28;20542;-75
2022/04/21 12:11:53;;;;;;;1.95;1.70;;;;;;;22.70;30.27;100371.53;4989122;28;20334;-74
2022/04/21 12:14:19;;;;;;;2.58;1.50;;;;;;;22.56;29.98;100369.00;5000055;28;20011;-74
2022/04/21 12:16:45;;;;;;;1.58;1.48;;;;;;;21.16;31.39;100370.97;4970973;28;20016;-73
2022/04/21 12:19:20;;;;;;;1.42;1.20;;;;;;;21.22;31.85;100364.75;4973447;28;20061;-74
2022/04/21 12:21:57;;;;;;;2.88;1.60;;;;;;;23.70;29.58;100355.81;4978939;28;20059;-75